sensor_id;sensor_type;location;lat;lon;timestamp;temperature;humidity
13186;DHT22;6658;53.080;7.428;2022-12-20T00:01:08;10.60;99.90
13186;DHT22;6658;53.080;7.428;2022-12-20T00:03:35;10.60;99.90
13186;DHT22;6658;53.080;7.428;2022-12-20T00:06:01;10.60;99.90
13186;DHT22;6658;53.080;7.428;2022-12-20T00:08:27;10.70;99.90
13186;DHT22;6658;53.080;7.428;2022-12-20T00:10:52;10.70;99.90
13186;DHT22;6658;53.080;7.428;2022-12-20T00:13:18;10.70;99.90
13186;DHT22;6658;53.080;7.428;2022-12-20T00:15:43;10.70;99.90
13186;DHT22;6658;53.080;7.428;2022-12-20T00:18:09;10.70;99.90
13186;DHT22;6658;53.080;7.428;2022-12-20T00:20:35;10.70;99.90
13186;DHT22;6658;53.080;7.428;2022-12-20T00:23:01;10.70;99.90
13186;DHT22;6658;53.080;7.428;2022-12-20T00:25:27;10.70;99.90
13186;DHT22;6658;53.080;7.428;2022-12-20T00:27:53;10.70;99.90
13186;DHT22;6658;53.080;7.428;2022-12-20T00:30:18;10.70;99.90
13186;DHT22;6658;53.080;7.428;2022-12-20T00:32:44;10.70;99.90
13186;DHT22;6658;53.080;7.428;2022-12-20T00:35:11;10.70;99.90
13186;DHT22;6658;53.080;7.428;2022-12-20T00:37:37;10.60;99.90
13186;DHT22;6658;53.080;7.428;2022-12-20T00:40:04;10.60;99.90
13186;DHT22;6658;53.080;7.428;2022-12-20T00:42:30;10.60;99.90
13186;DHT22;6658;53.080;7.428;2022-12-20T00:44:56;10.60;99.90
13186;DHT22;6658;53.080;7.428;2022-12-20T00:47:22;10.60;99.90
13186;DHT22;6658;53.080;7.428;2022-12-20T00:49:47;10.50;99.90
13186;DHT22;6658;53.080;7.428;2022-12-20T00:52:13;10.50;99.90
13186;DHT22;6658;53.080;7.428;2022-12-20T00:54:39;10.60;99.90
13186;DHT22;6658;53.080;7.428;2022-12-20T00:57:04;10.60;99.90
13186;DHT22;6658;53.080;7.428;2022-12-20T00:59:32;10.60;99.90
13186;DHT22;6658;53.080;7.428;2022-12-20T01:01:58;10.60;99.90
13186;DHT22;6658;53.080;7.428;2022-12-20T01:04:23;10.60;99.90
13186;DHT22;6658;53.080;7.428;2022-12-20T01:06:49;10.60;99.90
13186;DHT22;6658;53.080;7.428;2022-12-20T01:09:15;10.70;99.90
13186;DHT22;6658;53.080;7.428;2022-12-20T01:11:40;10.70;99.90
13186;DHT22;6658;53.080;7.428;2022-12-20T01:14:09;10.80;99.90
13186;DHT22;6658;53.080;7.428;2022-12-20T01:16:41;10.80;99.90
13186;DHT22;6658;53.080;7.428;2022-12-20T01:19:08;10.80;99.90
13186;DHT22;6658;53.080;7.428;2022-12-20T01:21:35;10.80;99.90
13186;DHT22;6658;53.080;7.428;2022-12-20T01:24:01;10.90;99.90
13186;DHT22;6658;53.080;7.428;2022-12-20T01:26:28;10.90;99.90
13186;DHT22;6658;53.080;7.428;2022-12-20T01:28:56;10.90;99.90
13186;DHT22;6658;53.080;7.428;2022-12-20T01:31:23;10.90;99.90
13186;DHT22;6658;53.080;7.428;2022-12-20T01:33:49;10.90;99.90
13186;DHT22;6658;53.080;7.428;2022-12-20T01:36:27;10.90;99.90
13186;DHT22;6658;53.080;7.428;2022-12-20T01:39:05;10.90;99.90
13186;DHT22;6658;53.080;7.428;2022-12-20T01:41:33;10.90;99.90
13186;DHT22;6658;53.080;7.428;2022-12-20T01:44:05;10.90;99.90
13186;DHT22;6658;53.080;7.428;2022-12-20T01:46:33;10.90;99.90
13186;DHT22;6658;53.080;7.428;2022-12-20T01:51:31;10.90;99.90
13186;DHT22;6658;53.080;7.428;2022-12-20T01:54:19;10.90;99.90
13186;DHT22;6658;53.080;7.428;2022-12-20T01:56:50;10.90;99.90
13186;DHT22;6658;53.080;7.428;2022-12-20T01:59:18;10.90;99.90
13186;DHT22;6658;53.080;7.428;2022-12-20T02:01:44;10.90;99.90
13186;DHT22;6658;53.080;7.428;2022-12-20T02:04:11;10.90;99.90
13186;DHT22;6658;53.080;7.428;2022-12-20T02:06:36;10.80;99.90
13186;DHT22;6658;53.080;7.428;2022-12-20T02:09:03;10.90;99.90
13186;DHT22;6658;53.080;7.428;2022-12-20T02:25:51;11.10;99.90
13186;DHT22;6658;53.080;7.428;2022-12-20T02:31:38;11.10;99.90
13186;DHT22;6658;53.080;7.428;2022-12-20T02:34:06;11.10;99.90
13186;DHT22;6658;53.080;7.428;2022-12-20T02:36:33;11.00;99.90
13186;DHT22;6658;53.080;7.428;2022-12-20T02:38:59;11.00;99.90
13186;DHT22;6658;53.080;7.428;2022-12-20T02:41:38;11.00;99.90
13186;DHT22;6658;53.080;7.428;2022-12-20T02:44:12;11.00;99.90
13186;DHT22;6658;53.080;7.428;2022-12-20T02:46:59;11.00;99.90
13186;DHT22;6658;53.080;7.428;2022-12-20T02:49:28;11.00;99.90
13186;DHT22;6658;53.080;7.428;2022-12-20T02:51:56;11.10;99.90
13186;DHT22;6658;53.080;7.428;2022-12-20T02:54:23;11.10;99.90
13186;DHT22;6658;53.080;7.428;2022-12-20T02:56:49;11.10;99.90
13186;DHT22;6658;53.080;7.428;2022-12-20T02:59:27;11.10;99.90
13186;DHT22;6658;53.080;7.428;2022-12-20T03:01:54;11.10;99.90
13186;DHT22;6658;53.080;7.428;2022-12-20T03:04:26;11.10;99.90
13186;DHT22;6658;53.080;7.428;2022-12-20T03:06:57;11.10;99.90
13186;DHT22;6658;53.080;7.428;2022-12-20T03:09:23;11.10;99.90
13186;DHT22;6658;53.080;7.428;2022-12-20T03:11:50;11.10;99.90
13186;DHT22;6658;53.080;7.428;2022-12-20T03:14:15;11.00;99.90
13186;DHT22;6658;53.080;7.428;2022-12-20T03:16:41;11.00;99.90
13186;DHT22;6658;53.080;7.428;2022-12-20T03:19:07;11.00;99.90
13186;DHT22;6658;53.080;7.428;2022-12-20T03:21:32;11.00;99.90
13186;DHT22;6658;53.080;7.428;2022-12-20T03:23:58;10.90;99.90
13186;DHT22;6658;53.080;7.428;2022-12-20T03:26:23;10.90;99.90
13186;DHT22;6658;53.080;7.428;2022-12-20T03:28:49;10.80;99.90
13186;DHT22;6658;53.080;7.428;2022-12-20T03:31:15;10.70;99.90
13186;DHT22;6658;53.080;7.428;2022-12-20T03:33:40;10.70;99.90
13186;DHT22;6658;53.080;7.428;2022-12-20T03:36:06;10.70;99.90
13186;DHT22;6658;53.080;7.428;2022-12-20T03:38:32;10.60;99.90
13186;DHT22;6658;53.080;7.428;2022-12-20T03:40:58;10.60;99.90
13186;DHT22;6658;53.080;7.428;2022-12-20T03:43:23;10.60;99.90
13186;DHT22;6658;53.080;7.428;2022-12-20T03:45:49;10.60;99.90
13186;DHT22;6658;53.080;7.428;2022-12-20T03:48:15;10.60;99.90
13186;DHT22;6658;53.080;7.428;2022-12-20T03:50:41;10.60;99.90
13186;DHT22;6658;53.080;7.428;2022-12-20T03:53:07;10.50;99.90
13186;DHT22;6658;53.080;7.428;2022-12-20T03:55:32;10.50;99.90
13186;DHT22;6658;53.080;7.428;2022-12-20T03:57:58;10.50;99.90
13186;DHT22;6658;53.080;7.428;2022-12-20T04:00:24;10.40;99.90
13186;DHT22;6658;53.080;7.428;2022-12-20T04:02:50;10.40;99.90
13186;DHT22;6658;53.080;7.428;2022-12-20T04:05:16;10.40;99.90
13186;DHT22;6658;53.080;7.428;2022-12-20T04:07:42;10.40;99.90
13186;DHT22;6658;53.080;7.428;2022-12-20T04:10:10;10.40;99.90
13186;DHT22;6658;53.080;7.428;2022-12-20T04:12:36;10.40;99.90
13186;DHT22;6658;53.080;7.428;2022-12-20T04:15:02;10.40;99.90
13186;DHT22;6658;53.080;7.428;2022-12-20T04:17:28;10.30;99.90
13186;DHT22;6658;53.080;7.428;2022-12-20T04:19:54;10.30;99.90
13186;DHT22;6658;53.080;7.428;2022-12-20T04:22:19;10.30;99.90
13186;DHT22;6658;53.080;7.428;2022-12-20T04:24:45;10.20;99.90
13186;DHT22;6658;53.080;7.428;2022-12-20T04:27:11;10.20;99.90
13186;DHT22;6658;53.080;7.428;2022-12-20T04:29:36;10.20;99.90
13186;DHT22;6658;53.080;7.428;2022-12-20T04:32:02;10.20;99.90
13186;DHT22;6658;53.080;7.428;2022-12-20T04:34:28;10.20;99.90
13186;DHT22;6658;53.080;7.428;2022-12-20T04:36:54;10.20;99.90
13186;DHT22;6658;53.080;7.428;2022-12-20T04:39:19;10.20;99.90
13186;DHT22;6658;53.080;7.428;2022-12-20T04:41:45;10.20;99.90
13186;DHT22;6658;53.080;7.428;2022-12-20T04:44:11;10.20;99.90
13186;DHT22;6658;53.080;7.428;2022-12-20T04:46:37;10.30;99.90
13186;DHT22;6658;53.080;7.428;2022-12-20T04:49:03;10.40;99.90
13186;DHT22;6658;53.080;7.428;2022-12-20T04:51:28;10.40;99.90
13186;DHT22;6658;53.080;7.428;2022-12-20T04:53:55;10.50;99.90
13186;DHT22;6658;53.080;7.428;2022-12-20T04:56:23;10.50;99.90
13186;DHT22;6658;53.080;7.428;2022-12-20T04:58:51;10.50;99.90
13186;DHT22;6658;53.080;7.428;2022-12-20T05:01:18;10.50;99.90
13186;DHT22;6658;53.080;7.428;2022-12-20T05:03:44;10.50;99.90
13186;DHT22;6658;53.080;7.428;2022-12-20T05:06:10;10.50;99.90
13186;DHT22;6658;53.080;7.428;2022-12-20T05:08:37;10.40;99.90
13186;DHT22;6658;53.080;7.428;2022-12-20T05:11:04;10.40;99.90
13186;DHT22;6658;53.080;7.428;2022-12-20T05:13:30;10.40;99.90
13186;DHT22;6658;53.080;7.428;2022-12-20T05:15:56;10.40;99.90
13186;DHT22;6658;53.080;7.428;2022-12-20T05:18:22;10.40;99.90
13186;DHT22;6658;53.080;7.428;2022-12-20T05:20:49;10.40;99.90
13186;DHT22;6658;53.080;7.428;2022-12-20T05:23:35;10.40;99.90
13186;DHT22;6658;53.080;7.428;2022-12-20T05:26:20;10.40;99.90
13186;DHT22;6658;53.080;7.428;2022-12-20T05:28:47;10.40;99.90
13186;DHT22;6658;53.080;7.428;2022-12-20T05:31:13;10.40;99.90
13186;DHT22;6658;53.080;7.428;2022-12-20T05:33:39;10.40;99.90
13186;DHT22;6658;53.080;7.428;2022-12-20T05:36:05;10.50;99.90
13186;DHT22;6658;53.080;7.428;2022-12-20T05:38:30;10.50;99.90
13186;DHT22;6658;53.080;7.428;2022-12-20T05:40:56;10.50;99.90
13186;DHT22;6658;53.080;7.428;2022-12-20T05:43:22;10.50;99.90
13186;DHT22;6658;53.080;7.428;2022-12-20T05:45:51;10.60;99.90
13186;DHT22;6658;53.080;7.428;2022-12-20T05:48:18;10.60;99.90
13186;DHT22;6658;53.080;7.428;2022-12-20T05:50:45;10.60;99.90
13186;DHT22;6658;53.080;7.428;2022-12-20T05:53:12;10.70;99.90
13186;DHT22;6658;53.080;7.428;2022-12-20T05:55:47;10.70;99.90
13186;DHT22;6658;53.080;7.428;2022-12-20T05:58:13;10.80;99.90
13186;DHT22;6658;53.080;7.428;2022-12-20T06:00:40;10.80;99.90
13186;DHT22;6658;53.080;7.428;2022-12-20T06:03:07;10.80;99.90
13186;DHT22;6658;53.080;7.428;2022-12-20T06:05:35;10.80;99.90
13186;DHT22;6658;53.080;7.428;2022-12-20T06:08:02;10.90;99.90
13186;DHT22;6658;53.080;7.428;2022-12-20T06:10:27;10.90;99.90
13186;DHT22;6658;53.080;7.428;2022-12-20T06:12:53;10.90;99.90
13186;DHT22;6658;53.080;7.428;2022-12-20T06:15:19;10.90;99.90
13186;DHT22;6658;53.080;7.428;2022-12-20T06:17:44;10.80;99.90
13186;DHT22;6658;53.080;7.428;2022-12-20T06:20:10;10.80;99.90
13186;DHT22;6658;53.080;7.428;2022-12-20T06:22:36;10.80;99.90
13186;DHT22;6658;53.080;7.428;2022-12-20T06:25:03;10.80;99.90
13186;DHT22;6658;53.080;7.428;2022-12-20T06:27:30;10.80;99.90
13186;DHT22;6658;53.080;7.428;2022-12-20T06:29:55;10.80;99.90
13186;DHT22;6658;53.080;7.428;2022-12-20T06:32:21;10.80;99.90
13186;DHT22;6658;53.080;7.428;2022-12-20T06:34:46;10.80;99.90
13186;DHT22;6658;53.080;7.428;2022-12-20T06:37:12;10.80;99.90
13186;DHT22;6658;53.080;7.428;2022-12-20T06:39:38;10.80;99.90
13186;DHT22;6658;53.080;7.428;2022-12-20T06:42:04;10.80;99.90
13186;DHT22;6658;53.080;7.428;2022-12-20T06:44:29;10.80;99.90
13186;DHT22;6658;53.080;7.428;2022-12-20T06:46:55;10.80;99.90
13186;DHT22;6658;53.080;7.428;2022-12-20T06:49:21;10.80;99.90
13186;DHT22;6658;53.080;7.428;2022-12-20T06:51:47;10.80;99.90
13186;DHT22;6658;53.080;7.428;2022-12-20T06:54:13;10.90;99.90
13186;DHT22;6658;53.080;7.428;2022-12-20T06:56:38;10.90;99.90
13186;DHT22;6658;53.080;7.428;2022-12-20T06:59:05;10.90;99.90
13186;DHT22;6658;53.080;7.428;2022-12-20T07:01:31;10.90;99.90
13186;DHT22;6658;53.080;7.428;2022-12-20T07:03:56;11.00;99.90
13186;DHT22;6658;53.080;7.428;2022-12-20T07:06:22;11.00;99.90
13186;DHT22;6658;53.080;7.428;2022-12-20T07:08:48;11.00;99.90
13186;DHT22;6658;53.080;7.428;2022-12-20T07:11:14;11.00;99.90
13186;DHT22;6658;53.080;7.428;2022-12-20T07:13:39;11.00;99.90
13186;DHT22;6658;53.080;7.428;2022-12-20T07:16:05;11.00;99.90
13186;DHT22;6658;53.080;7.428;2022-12-20T07:18:32;11.10;99.90
13186;DHT22;6658;53.080;7.428;2022-12-20T07:21:00;11.10;99.90
13186;DHT22;6658;53.080;7.428;2022-12-20T07:23:26;11.10;99.90
13186;DHT22;6658;53.080;7.428;2022-12-20T07:25:56;11.10;99.90
13186;DHT22;6658;53.080;7.428;2022-12-20T07:28:23;11.10;99.90
13186;DHT22;6658;53.080;7.428;2022-12-20T07:30:49;11.10;99.90
13186;DHT22;6658;53.080;7.428;2022-12-20T07:33:15;11.00;99.90
13186;DHT22;6658;53.080;7.428;2022-12-20T07:35:41;11.00;99.90
13186;DHT22;6658;53.080;7.428;2022-12-20T07:38:08;10.90;99.90
13186;DHT22;6658;53.080;7.428;2022-12-20T07:40:39;10.90;99.90
13186;DHT22;6658;53.080;7.428;2022-12-20T07:43:05;10.80;99.90
13186;DHT22;6658;53.080;7.428;2022-12-20T07:45:31;10.80;99.90
13186;DHT22;6658;53.080;7.428;2022-12-20T07:47:58;10.70;99.90
13186;DHT22;6658;53.080;7.428;2022-12-20T07:50:25;10.70;99.90
13186;DHT22;6658;53.080;7.428;2022-12-20T07:52:52;10.70;99.90
13186;DHT22;6658;53.080;7.428;2022-12-20T07:55:18;10.70;99.90
13186;DHT22;6658;53.080;7.428;2022-12-20T07:57:50;10.70;99.90
13186;DHT22;6658;53.080;7.428;2022-12-20T08:00:17;10.70;99.90
13186;DHT22;6658;53.080;7.428;2022-12-20T08:02:51;10.70;99.90
13186;DHT22;6658;53.080;7.428;2022-12-20T08:05:18;10.70;99.90
13186;DHT22;6658;53.080;7.428;2022-12-20T08:07:45;10.70;99.90
13186;DHT22;6658;53.080;7.428;2022-12-20T08:10:12;10.70;99.90
13186;DHT22;6658;53.080;7.428;2022-12-20T08:12:39;10.70;99.90
13186;DHT22;6658;53.080;7.428;2022-12-20T08:15:07;10.70;99.90
13186;DHT22;6658;53.080;7.428;2022-12-20T08:17:32;10.80;99.90
13186;DHT22;6658;53.080;7.428;2022-12-20T08:19:58;10.80;99.90
13186;DHT22;6658;53.080;7.428;2022-12-20T08:22:25;10.80;99.90
13186;DHT22;6658;53.080;7.428;2022-12-20T08:24:50;10.80;99.90
13186;DHT22;6658;53.080;7.428;2022-12-20T08:27:16;10.90;99.90
13186;DHT22;6658;53.080;7.428;2022-12-20T08:29:42;10.90;99.90
13186;DHT22;6658;53.080;7.428;2022-12-20T08:32:07;11.00;99.90
13186;DHT22;6658;53.080;7.428;2022-12-20T08:34:34;11.00;99.90
13186;DHT22;6658;53.080;7.428;2022-12-20T08:37:00;11.00;99.90
13186;DHT22;6658;53.080;7.428;2022-12-20T08:39:25;11.00;99.90
13186;DHT22;6658;53.080;7.428;2022-12-20T08:41:51;11.00;99.90
13186;DHT22;6658;53.080;7.428;2022-12-20T08:44:17;11.10;99.90
13186;DHT22;6658;53.080;7.428;2022-12-20T08:46:42;11.10;99.90
13186;DHT22;6658;53.080;7.428;2022-12-20T08:49:08;11.20;99.90
13186;DHT22;6658;53.080;7.428;2022-12-20T08:51:34;11.20;99.90
13186;DHT22;6658;53.080;7.428;2022-12-20T08:53:59;11.30;99.90
13186;DHT22;6658;53.080;7.428;2022-12-20T08:56:27;11.40;99.90
13186;DHT22;6658;53.080;7.428;2022-12-20T08:58:53;11.40;99.90
13186;DHT22;6658;53.080;7.428;2022-12-20T09:01:20;11.40;99.90
13186;DHT22;6658;53.080;7.428;2022-12-20T09:03:48;11.40;99.90
13186;DHT22;6658;53.080;7.428;2022-12-20T09:06:16;11.40;99.90
13186;DHT22;6658;53.080;7.428;2022-12-20T09:08:43;11.40;99.90
13186;DHT22;6658;53.080;7.428;2022-12-20T09:13:37;11.40;99.90
13186;DHT22;6658;53.080;7.428;2022-12-20T09:16:04;11.40;99.90
13186;DHT22;6658;53.080;7.428;2022-12-20T09:18:30;11.40;99.90
13186;DHT22;6658;53.080;7.428;2022-12-20T09:21:04;11.40;99.90
13186;DHT22;6658;53.080;7.428;2022-12-20T09:23:31;11.40;99.90
13186;DHT22;6658;53.080;7.428;2022-12-20T09:26:10;11.40;99.90
13186;DHT22;6658;53.080;7.428;2022-12-20T09:28:35;11.40;99.90
13186;DHT22;6658;53.080;7.428;2022-12-20T09:31:04;11.50;99.90
13186;DHT22;6658;53.080;7.428;2022-12-20T09:33:31;11.50;99.90
13186;DHT22;6658;53.080;7.428;2022-12-20T09:35:57;11.50;99.90
13186;DHT22;6658;53.080;7.428;2022-12-20T09:38:23;11.60;99.90
13186;DHT22;6658;53.080;7.428;2022-12-20T09:40:51;11.60;99.90
13186;DHT22;6658;53.080;7.428;2022-12-20T09:43:18;11.60;99.90
13186;DHT22;6658;53.080;7.428;2022-12-20T09:45:47;11.70;99.90
13186;DHT22;6658;53.080;7.428;2022-12-20T09:48:44;11.80;99.90
13186;DHT22;6658;53.080;7.428;2022-12-20T09:57:16;12.00;99.90
13186;DHT22;6658;53.080;7.428;2022-12-20T09:59:45;12.00;99.90
13186;DHT22;6658;53.080;7.428;2022-12-20T10:02:12;11.90;99.90
13186;DHT22;6658;53.080;7.428;2022-12-20T10:04:39;11.80;99.90
13186;DHT22;6658;53.080;7.428;2022-12-20T10:07:26;11.80;99.90
13186;DHT22;6658;53.080;7.428;2022-12-20T10:18:31;11.90;99.90
13186;DHT22;6658;53.080;7.428;2022-12-20T10:21:04;11.90;99.90
13186;DHT22;6658;53.080;7.428;2022-12-20T10:23:44;11.90;99.90
13186;DHT22;6658;53.080;7.428;2022-12-20T10:26:12;11.90;99.90
13186;DHT22;6658;53.080;7.428;2022-12-20T10:28:38;11.90;99.90
13186;DHT22;6658;53.080;7.428;2022-12-20T10:31:15;11.90;99.90
13186;DHT22;6658;53.080;7.428;2022-12-20T10:33:42;11.90;99.90
13186;DHT22;6658;53.080;7.428;2022-12-20T10:36:29;11.80;99.90
13186;DHT22;6658;53.080;7.428;2022-12-20T10:38:56;11.80;99.90
13186;DHT22;6658;53.080;7.428;2022-12-20T10:41:31;11.70;99.90
13186;DHT22;6658;53.080;7.428;2022-12-20T10:44:03;11.70;99.90
13186;DHT22;6658;53.080;7.428;2022-12-20T10:46:36;11.60;99.90
13186;DHT22;6658;53.080;7.428;2022-12-20T10:49:28;11.50;99.90
13186;DHT22;6658;53.080;7.428;2022-12-20T10:51:58;11.40;99.90
13186;DHT22;6658;53.080;7.428;2022-12-20T10:56:59;11.20;99.90
13186;DHT22;6658;53.080;7.428;2022-12-20T10:59:34;11.20;99.90
13186;DHT22;6658;53.080;7.428;2022-12-20T11:02:15;11.10;99.90
13186;DHT22;6658;53.080;7.428;2022-12-20T11:04:59;11.10;99.90
13186;DHT22;6658;53.080;7.428;2022-12-20T11:07:30;11.00;99.90
13186;DHT22;6658;53.080;7.428;2022-12-20T11:12:59;10.90;99.90
13186;DHT22;6658;53.080;7.428;2022-12-20T11:15:30;10.90;99.90
13186;DHT22;6658;53.080;7.428;2022-12-20T11:39:48;11.00;99.90
13186;DHT22;6658;53.080;7.428;2022-12-20T11:52:57;11.10;99.90
13186;DHT22;6658;53.080;7.428;2022-12-20T11:55:35;11.10;99.90
13186;DHT22;6658;53.080;7.428;2022-12-20T12:00:37;11.10;99.90
13186;DHT22;6658;53.080;7.428;2022-12-20T12:03:18;11.10;99.90
13186;DHT22;6658;53.080;7.428;2022-12-20T12:05:51;11.10;99.90
13186;DHT22;6658;53.080;7.428;2022-12-20T12:11:14;11.00;99.90
13186;DHT22;6658;53.080;7.428;2022-12-20T12:13:43;11.00;99.90
13186;DHT22;6658;53.080;7.428;2022-12-20T12:16:39;11.00;99.90
13186;DHT22;6658;53.080;7.428;2022-12-20T12:19:11;11.00;99.90
13186;DHT22;6658;53.080;7.428;2022-12-20T12:21:46;11.00;99.90
13186;DHT22;6658;53.080;7.428;2022-12-20T12:24:44;11.00;99.90
13186;DHT22;6658;53.080;7.428;2022-12-20T12:27:29;11.00;99.90
13186;DHT22;6658;53.080;7.428;2022-12-20T12:29:57;11.00;99.90
13186;DHT22;6658;53.080;7.428;2022-12-20T12:32:35;11.00;99.90
13186;DHT22;6658;53.080;7.428;2022-12-20T12:41:43;11.00;99.90
13186;DHT22;6658;53.080;7.428;2022-12-20T12:46:54;11.00;99.90
13186;DHT22;6658;53.080;7.428;2022-12-20T12:49:27;10.90;99.90
13186;DHT22;6658;53.080;7.428;2022-12-20T12:51:57;10.90;99.90
13186;DHT22;6658;53.080;7.428;2022-12-20T12:54:39;10.90;99.90
13186;DHT22;6658;53.080;7.428;2022-12-20T12:57:13;10.90;99.90
13186;DHT22;6658;53.080;7.428;2022-12-20T13:17:55;11.00;99.90
13186;DHT22;6658;53.080;7.428;2022-12-20T13:23:13;11.00;99.90
13186;DHT22;6658;53.080;7.428;2022-12-20T13:25:49;11.00;99.90
13186;DHT22;6658;53.080;7.428;2022-12-20T13:30:46;11.00;99.90
13186;DHT22;6658;53.080;7.428;2022-12-20T13:33:43;11.00;99.90
13186;DHT22;6658;53.080;7.428;2022-12-20T13:43:53;11.00;99.90
13186;DHT22;6658;53.080;7.428;2022-12-20T13:46:30;10.90;99.90
13186;DHT22;6658;53.080;7.428;2022-12-20T13:49:02;11.00;99.90
13186;DHT22;6658;53.080;7.428;2022-12-20T13:51:30;11.00;99.90
13186;DHT22;6658;53.080;7.428;2022-12-20T13:54:03;11.00;99.90
13186;DHT22;6658;53.080;7.428;2022-12-20T13:56:46;11.00;99.90
13186;DHT22;6658;53.080;7.428;2022-12-20T13:59:17;11.00;99.90
13186;DHT22;6658;53.080;7.428;2022-12-20T14:01:51;11.00;99.90
13186;DHT22;6658;53.080;7.428;2022-12-20T14:04:18;11.00;99.90
13186;DHT22;6658;53.080;7.428;2022-12-20T14:06:51;11.00;99.90
13186;DHT22;6658;53.080;7.428;2022-12-20T14:09:45;11.00;99.90
13186;DHT22;6658;53.080;7.428;2022-12-20T14:12:13;11.00;99.90
13186;DHT22;6658;53.080;7.428;2022-12-20T14:14:44;11.00;99.90
13186;DHT22;6658;53.080;7.428;2022-12-20T14:17:21;11.00;99.90
13186;DHT22;6658;53.080;7.428;2022-12-20T14:20:04;11.00;99.90
13186;DHT22;6658;53.080;7.428;2022-12-20T14:22:31;11.00;99.90
13186;DHT22;6658;53.080;7.428;2022-12-20T14:24:57;11.00;99.90
13186;DHT22;6658;53.080;7.428;2022-12-20T14:27:25;11.00;99.90
13186;DHT22;6658;53.080;7.428;2022-12-20T14:29:53;11.00;99.90
13186;DHT22;6658;53.080;7.428;2022-12-20T14:32:19;11.00;99.90
13186;DHT22;6658;53.080;7.428;2022-12-20T14:34:47;11.00;99.90
13186;DHT22;6658;53.080;7.428;2022-12-20T14:37:32;11.00;99.90
13186;DHT22;6658;53.080;7.428;2022-12-20T14:40:15;11.00;99.90
13186;DHT22;6658;53.080;7.428;2022-12-20T14:42:42;11.00;99.90
13186;DHT22;6658;53.080;7.428;2022-12-20T14:47:34;11.00;99.90
13186;DHT22;6658;53.080;7.428;2022-12-20T14:50:03;11.10;99.90
13186;DHT22;6658;53.080;7.428;2022-12-20T14:52:34;11.00;99.90
13186;DHT22;6658;53.080;7.428;2022-12-20T14:55:01;11.00;99.90
13186;DHT22;6658;53.080;7.428;2022-12-20T15:00:14;11.00;99.90
13186;DHT22;6658;53.080;7.428;2022-12-20T15:02:47;11.00;99.90
13186;DHT22;6658;53.080;7.428;2022-12-20T15:11:10;11.10;99.90
13186;DHT22;6658;53.080;7.428;2022-12-20T15:13:41;11.10;99.90
13186;DHT22;6658;53.080;7.428;2022-12-20T15:16:17;11.10;99.90
13186;DHT22;6658;53.080;7.428;2022-12-20T15:18:51;11.10;99.90
13186;DHT22;6658;53.080;7.428;2022-12-20T15:21:32;11.10;99.90
13186;DHT22;6658;53.080;7.428;2022-12-20T15:24:00;11.10;99.90
13186;DHT22;6658;53.080;7.428;2022-12-20T15:26:28;11.10;99.90
13186;DHT22;6658;53.080;7.428;2022-12-20T15:28:55;11.10;99.90
13186;DHT22;6658;53.080;7.428;2022-12-20T15:31:23;11.10;99.90
13186;DHT22;6658;53.080;7.428;2022-12-20T15:33:49;11.10;99.90
13186;DHT22;6658;53.080;7.428;2022-12-20T15:36:22;11.10;99.90
13186;DHT22;6658;53.080;7.428;2022-12-20T15:38:49;11.10;99.90
13186;DHT22;6658;53.080;7.428;2022-12-20T15:41:24;11.20;99.90
13186;DHT22;6658;53.080;7.428;2022-12-20T15:43:54;11.20;99.90
13186;DHT22;6658;53.080;7.428;2022-12-20T15:46:20;11.20;99.90
13186;DHT22;6658;53.080;7.428;2022-12-20T15:48:45;11.20;99.90
13186;DHT22;6658;53.080;7.428;2022-12-20T15:51:26;11.10;99.90
13186;DHT22;6658;53.080;7.428;2022-12-20T15:53:53;11.20;99.90
13186;DHT22;6658;53.080;7.428;2022-12-20T15:56:21;11.20;99.90
13186;DHT22;6658;53.080;7.428;2022-12-20T15:58:47;11.20;99.90
13186;DHT22;6658;53.080;7.428;2022-12-20T16:01:35;11.20;99.90
13186;DHT22;6658;53.080;7.428;2022-12-20T16:04:02;11.10;99.90
13186;DHT22;6658;53.080;7.428;2022-12-20T16:06:28;11.20;99.90
13186;DHT22;6658;53.080;7.428;2022-12-20T16:08:54;11.20;99.90
13186;DHT22;6658;53.080;7.428;2022-12-20T16:11:25;11.20;99.90
13186;DHT22;6658;53.080;7.428;2022-12-20T16:13:55;11.20;99.90
13186;DHT22;6658;53.080;7.428;2022-12-20T16:16:24;11.20;99.90
13186;DHT22;6658;53.080;7.428;2022-12-20T16:18:50;11.20;99.90
13186;DHT22;6658;53.080;7.428;2022-12-20T16:21:24;11.20;99.90
13186;DHT22;6658;53.080;7.428;2022-12-20T16:23:51;11.20;99.90
13186;DHT22;6658;53.080;7.428;2022-12-20T16:26:19;11.20;99.90
13186;DHT22;6658;53.080;7.428;2022-12-20T16:28:46;11.20;99.90
13186;DHT22;6658;53.080;7.428;2022-12-20T16:31:34;11.20;99.90
13186;DHT22;6658;53.080;7.428;2022-12-20T16:34:05;11.20;99.90
13186;DHT22;6658;53.080;7.428;2022-12-20T16:36:35;11.20;99.90
13186;DHT22;6658;53.080;7.428;2022-12-20T16:39:00;11.20;99.90
13186;DHT22;6658;53.080;7.428;2022-12-20T16:41:28;11.20;99.90
13186;DHT22;6658;53.080;7.428;2022-12-20T16:43:56;11.20;99.90
13186;DHT22;6658;53.080;7.428;2022-12-20T16:46:23;11.20;99.90
13186;DHT22;6658;53.080;7.428;2022-12-20T16:48:52;11.20;99.90
13186;DHT22;6658;53.080;7.428;2022-12-20T16:51:29;11.20;99.90
13186;DHT22;6658;53.080;7.428;2022-12-20T16:53:58;11.20;99.90
13186;DHT22;6658;53.080;7.428;2022-12-20T16:56:25;11.20;99.90
13186;DHT22;6658;53.080;7.428;2022-12-20T16:58:51;11.20;99.90
13186;DHT22;6658;53.080;7.428;2022-12-20T17:01:19;11.20;99.90
13186;DHT22;6658;53.080;7.428;2022-12-20T17:03:48;11.20;99.90
13186;DHT22;6658;53.080;7.428;2022-12-20T17:06:15;11.20;99.90
13186;DHT22;6658;53.080;7.428;2022-12-20T17:08:42;11.20;99.90
13186;DHT22;6658;53.080;7.428;2022-12-20T17:11:16;11.20;99.90
13186;DHT22;6658;53.080;7.428;2022-12-20T17:13:45;11.20;99.90
13186;DHT22;6658;53.080;7.428;2022-12-20T17:16:12;11.20;99.90
13186;DHT22;6658;53.080;7.428;2022-12-20T17:18:43;11.20;99.90
13186;DHT22;6658;53.080;7.428;2022-12-20T17:23:49;11.20;99.90
13186;DHT22;6658;53.080;7.428;2022-12-20T17:26:20;11.20;99.90
13186;DHT22;6658;53.080;7.428;2022-12-20T17:28:48;11.20;99.90
13186;DHT22;6658;53.080;7.428;2022-12-20T17:33:52;11.20;99.90
13186;DHT22;6658;53.080;7.428;2022-12-20T17:36:18;11.20;99.90
13186;DHT22;6658;53.080;7.428;2022-12-20T17:38:44;11.20;99.90
13186;DHT22;6658;53.080;7.428;2022-12-20T17:41:32;11.20;99.90
13186;DHT22;6658;53.080;7.428;2022-12-20T17:43:59;11.20;99.90
13186;DHT22;6658;53.080;7.428;2022-12-20T17:46:26;11.20;99.90
13186;DHT22;6658;53.080;7.428;2022-12-20T17:48:53;11.10;99.90
13186;DHT22;6658;53.080;7.428;2022-12-20T17:51:20;11.10;99.90
13186;DHT22;6658;53.080;7.428;2022-12-20T17:53:49;11.20;99.90
13186;DHT22;6658;53.080;7.428;2022-12-20T17:56:22;11.20;99.90
13186;DHT22;6658;53.080;7.428;2022-12-20T17:58:48;11.20;99.90
13186;DHT22;6658;53.080;7.428;2022-12-20T18:03:48;11.20;99.90
13186;DHT22;6658;53.080;7.428;2022-12-20T18:06:14;11.20;99.90
13186;DHT22;6658;53.080;7.428;2022-12-20T18:08:40;11.20;99.90
13186;DHT22;6658;53.080;7.428;2022-12-20T18:11:07;11.20;99.90
13186;DHT22;6658;53.080;7.428;2022-12-20T18:13:33;11.20;99.90
13186;DHT22;6658;53.080;7.428;2022-12-20T18:16:03;11.10;99.90